Bearskin Lake, Canada
Current Conditions -  °F | °C
As of 6:14 PM on Sunday 23 Nov 2014 (Local Time) from CYTL Reporting Station
Light Snow Light Snow  
Wind Chill: -25°   Ceiling: 2300
Heat Index: -17°   Visibility: 2mi
Dew Point: -19°   Wind: 8mph
Humidity: 85%   Direction: 40°NE
Pressure: 29.77"   Gusts: NA
Location:  53.93°N, 90.98°W
Report Text: CYTL 240014Z AUTO 04007KT 010V080 2SM -SN OVC023 M17/M19 A2977 RMK SLP108
Loading
Personal Weather Stations






























Interactive Weather Map New forecast layout! Learn more

10-Day Weather Forecast

Advertisements
Track Severe Weather on mobile